Time;durP1;ratioP1;P1;durP2;ratioP2;P2;SDS_P1;SDS_P2;PMS_P1;PMS_P2;Temp;Humidity;BMP_temperature;BMP_pressure;BME280_temperature;BME280_humidity;BME280_pressure;Samples;Min_cycle;Max_cycle;Signal;HPM_P1;HPM_P2
2024/04/10 00:00:18;;;;;;;27.67;13.85;;;12.60;99.90;;;;;;5421745;26;19995;-83
2024/04/10 00:02:44;;;;;;;24.40;14.70;;;12.70;99.90;;;;;;5418993;26;19999;-83
2024/04/10 00:05:11;;;;;;;30.10;14.52;;;12.60;99.90;;;;;;5420368;26;20010;-82
2024/04/10 00:07:36;;;;;;;26.08;12.93;;;12.70;99.90;;;;;;5418932;26;20007;-82
2024/04/10 00:10:04;;;;;;;24.67;14.43;;;12.70;99.90;;;;;;5417496;26;20448;-81
2024/04/10 00:12:30;;;;;;;19.45;12.27;;;12.60;99.90;;;;;;5416892;26;20006;-81
2024/04/10 00:14:56;;;;;;;27.17;14.65;;;12.60;99.90;;;;;;5416665;26;19996;-81
2024/04/10 00:17:22;;;;;;;23.15;13.77;;;12.60;99.90;;;;;;5416858;26;19995;-81
2024/04/10 00:19:53;;;;;;;23.25;14.20;;;12.60;99.90;;;;;;5417280;26;19996;-79
2024/04/10 00:22:19;;;;;;;33.97;14.43;;;12.50;99.90;;;;;;5416978;26;20007;-81
2024/04/10 00:24:45;;;;;;;21.95;12.77;;;12.60;99.90;;;;;;5377948;26;20449;-81
2024/04/10 00:27:11;;;;;;;28.38;16.20;;;12.60;99.90;;;;;;5398794;26;20080;-80
2024/04/10 00:29:37;;;;;;;27.63;15.48;;;12.60;99.90;;;;;;5384708;26;20008;-81
2024/04/10 00:32:04;;;;;;;28.17;14.35;;;12.60;99.90;;;;;;5385253;26;20015;-81
2024/04/10 00:34:30;;;;;;;27.90;14.68;;;12.50;99.90;;;;;;5417816;26;20014;-81
2024/04/10 00:36:55;;;;;;;33.72;16.10;;;12.50;99.90;;;;;;5417034;26;20004;-81
2024/04/10 00:39:21;;;;;;;31.48;16.35;;;12.50;99.90;;;;;;5385633;26;20338;-81
2024/04/10 00:41:47;;;;;;;25.63;15.23;;;12.50;99.90;;;;;;5419718;26;20004;-80
2024/04/10 00:44:13;;;;;;;28.98;16.42;;;12.50;99.90;;;;;;5417041;26;20405;-81
2024/04/10 00:46:39;;;;;;;29.85;16.33;;;12.50;99.90;;;;;;5416235;26;20011;-80
2024/04/10 00:49:05;;;;;;;26.10;16.42;;;12.50;99.90;;;;;;5415937;26;20003;-80
2024/04/10 00:51:31;;;;;;;25.63;16.48;;;12.50;99.90;;;;;;5415916;26;20014;-80
2024/04/10 00:53:58;;;;;;;31.58;16.08;;;12.50;99.90;;;;;;5416055;26;20000;-80
2024/04/10 00:56:24;;;;;;;27.60;15.88;;;12.50;99.90;;;;;;5416213;26;20478;-81
2024/04/10 00:58:50;;;;;;;36.50;17.73;;;12.50;99.90;;;;;;5384983;26;20214;-81
2024/04/10 01:01:16;;;;;;;24.45;15.60;;;12.50;99.90;;;;;;5385346;26;20003;-81
2024/04/10 01:03:41;;;;;;;40.63;18.45;;;12.40;99.90;;;;;;5416058;26;20031;-80
2024/04/10 01:06:10;;;;;;;39.95;17.50;;;12.40;99.90;;;;;;5416133;26;20007;-82
2024/04/10 01:08:38;;;;;;;34.10;16.67;;;12.50;99.90;;;;;;5415526;26;20014;-79
2024/04/10 01:11:06;;;;;;;38.88;18.27;;;12.50;99.90;;;;;;5384403;26;20489;-81
2024/04/10 01:13:32;;;;;;;31.65;17.00;;;12.50;99.90;;;;;;5415715;26;20003;-80
2024/04/10 01:15:59;;;;;;;33.85;17.10;;;12.50;99.90;;;;;;5415598;26;20406;-81
2024/04/10 01:18:36;;;;;;;30.63;15.00;;;12.50;99.90;;;;;;5415799;26;20075;-81
2024/04/10 01:21:07;;;;;;;30.30;15.90;;;12.50;99.90;;;;;;5415390;26;20000;-80
2024/04/10 01:23:33;;;;;;;27.77;15.60;;;12.50;99.90;;;;;;5383634;26;20006;-80
2024/04/10 01:25:59;;;;;;;30.73;16.38;;;12.40;99.90;;;;;;5415891;26;20003;-80
2024/04/10 01:28:25;;;;;;;35.45;16.60;;;12.40;99.90;;;;;;5384379;26;19999;-80
2024/04/10 01:30:50;;;;;;;27.83;16.17;;;12.40;99.90;;;;;;5416051;26;20011;-81
2024/04/10 01:33:16;;;;;;;37.67;18.55;;;12.50;99.90;;;;;;5382209;26;20073;-79
2024/04/10 01:35:42;;;;;;;36.78;17.48;;;12.50;99.90;;;;;;5381946;26;20015;-80
2024/04/10 01:38:08;;;;;;;29.58;16.63;;;12.60;99.90;;;;;;5382921;26;20421;-81
2024/04/10 01:40:34;;;;;;;31.73;17.80;;;12.60;99.90;;;;;;5414641;26;20035;-80
2024/04/10 01:43:00;;;;;;;33.97;19.02;;;12.70;99.90;;;;;;5415584;26;20003;-78
2024/04/10 01:45:26;;;;;;;35.40;16.73;;;12.70;99.90;;;;;;5386795;26;20003;-79
2024/04/10 01:47:52;;;;;;;32.80;16.52;;;12.70;99.90;;;;;;5418399;26;20352;-81
2024/04/10 01:50:17;;;;;;;34.40;17.25;;;12.70;99.90;;;;;;5418275;26;20004;-80
2024/04/10 01:52:43;;;;;;;33.25;16.08;;;12.70;99.90;;;;;;5420287;26;20022;-81
2024/04/10 01:55:10;;;;;;;30.75;17.00;;;12.60;99.90;;;;;;5418700;26;20004;-80
2024/04/10 01:57:36;;;;;;;37.63;18.57;;;12.60;99.90;;;;;;5426062;26;20000;-82
2024/04/10 02:00:02;;;;;;;30.50;15.75;;;12.60;99.90;;;;;;5387979;26;20004;-81
2024/04/10 02:02:39;;;;;;;36.92;18.42;;;12.50;99.90;;;;;;5387457;26;20378;-81
2024/04/10 02:05:05;;;;;;;31.15;16.30;;;12.50;99.90;;;;;;5419097;26;20003;-83
2024/04/10 02:07:31;;;;;;;24.92;16.98;;;12.50;99.90;;;;;;5419094;26;20435;-82
2024/04/10 02:09:56;;;;;;;28.38;16.17;;;12.50;99.90;;;;;;5388120;26;20018;-80
2024/04/10 02:12:22;;;;;;;27.33;17.60;;;12.40;99.90;;;;;;5419422;26;20137;-80
2024/04/10 02:14:48;;;;;;;34.28;16.05;;;12.40;99.90;;;;;;5418905;26;20011;-81
2024/04/10 02:17:14;;;;;;;34.00;19.45;;;12.40;99.90;;;;;;5418611;26;20014;-81
2024/04/10 02:19:39;;;;;;;36.20;20.17;;;12.40;99.90;;;;;;5387849;26;20447;-81
2024/04/10 02:22:06;;;;;;;39.42;21.33;;;12.40;99.90;;;;;;5418918;26;20071;-82
2024/04/10 02:24:32;;;;;;;36.97;20.98;;;12.40;99.90;;;;;;5387309;26;20001;-80
2024/04/10 02:26:58;;;;;;;34.28;19.42;;;12.40;99.90;;;;;;5404537;26;20015;-80
2024/04/10 02:29:23;;;;;;;34.08;20.30;;;12.50;99.90;;;;;;5407871;26;20196;-80
2024/04/10 02:31:49;;;;;;;37.88;21.33;;;12.40;99.90;;;;;;5418437;26;20359;-81
2024/04/10 02:34:16;;;;;;;43.17;27.08;;;12.40;99.90;;;;;;5418454;26;19999;-80
2024/04/10 02:36:42;;;;;;;51.37;28.30;;;12.40;99.90;;;;;;5418515;26;20039;-81
2024/04/10 02:39:09;;;;;;;51.47;30.17;;;12.40;99.90;;;;;;5418363;26;20030;-80
2024/04/10 02:41:34;;;;;;;55.45;33.53;;;12.40;99.90;;;;;;5386609;26;20017;-80
2024/04/10 02:44:00;;;;;;;57.05;33.67;;;12.40;99.90;;;;;;5418025;26;20011;-79
2024/04/10 02:46:26;;;;;;;53.55;34.75;;;12.40;99.90;;;;;;5418702;26;19999;-80
2024/04/10 02:48:52;;;;;;;57.25;35.50;;;12.40;99.90;;;;;;5419184;26;20460;-79
2024/04/10 02:51:18;;;;;;;66.93;37.72;;;12.40;99.90;;;;;;5424544;26;20019;-79
2024/04/10 02:53:43;;;;;;;66.38;37.35;;;12.40;99.90;;;;;;5429495;26;20038;-78
2024/04/10 02:56:09;;;;;;;59.67;36.03;;;12.30;99.90;;;;;;5433539;26;20000;-78
2024/04/10 02:58:35;;;;;;;77.03;39.85;;;12.30;99.90;;;;;;5422123;26;20000;-80
2024/04/10 03:01:01;;;;;;;70.20;38.22;;;12.20;99.90;;;;;;5418082;26;20456;-79
2024/04/10 03:03:26;;;;;;;59.17;37.35;;;12.20;99.90;;;;;;5417629;26;20007;-80
2024/04/10 03:06:13;;;;;;;60.45;39.10;;;12.20;99.90;;;;;;5418684;26;20080;-80
2024/04/10 03:08:39;;;;;;;56.07;34.63;;;12.20;99.90;;;;;;5418018;26;20009;-79
2024/04/10 03:11:05;;;;;;;64.10;34.30;;;12.20;99.90;;;;;;5418704;26;20321;-80
2024/04/10 03:13:35;;;;;;;62.50;34.60;;;12.20;99.90;;;;;;5424714;26;20011;-79
2024/04/10 03:16:01;;;;;;;57.90;31.50;;;12.20;99.90;;;;;;5419233;26;20030;-80
2024/04/10 03:18:27;;;;;;;64.72;36.47;;;12.20;99.90;;;;;;5418117;26;20035;-81
2024/04/10 03:20:53;;;;;;;64.72;36.28;;;12.20;99.90;;;;;;5417722;26;20014;-82
2024/04/10 03:23:19;;;;;;;68.13;34.80;;;12.20;99.90;;;;;;5418332;26;20011;-78
2024/04/10 03:25:45;;;;;;;61.80;35.05;;;12.10;99.90;;;;;;5417815;26;20011;-80
2024/04/10 03:28:11;;;;;;;64.65;34.45;;;12.00;99.90;;;;;;5417269;26;20003;-81
2024/04/10 03:30:37;;;;;;;65.82;38.33;;;11.90;99.90;;;;;;5417386;26;20444;-80
2024/04/10 03:33:03;;;;;;;64.60;33.22;;;11.90;99.90;;;;;;5417348;26;20000;-81
2024/04/10 03:35:30;;;;;;;66.43;34.28;;;11.90;99.90;;;;;;5356824;26;20444;-81
2024/04/10 03:37:55;;;;;;;70.50;35.10;;;11.70;99.90;;;;;;5417314;26;20011;-82
2024/04/10 03:40:22;;;;;;;70.30;35.13;;;11.70;99.90;;;;;;5417349;26;20456;-81
2024/04/10 03:42:48;;;;;;;72.43;36.00;;;11.70;99.90;;;;;;5417381;26;20003;-80
2024/04/10 03:45:14;;;;;;;78.78;36.33;;;11.80;99.90;;;;;;5417549;26;20347;-81
2024/04/10 03:47:41;;;;;;;50.50;29.55;;;11.90;99.90;;;;;;5417593;26;20400;-82
2024/04/10 03:50:08;;;;;;;36.92;23.65;;;12.00;99.90;;;;;;5417532;26;20073;-80
2024/04/10 03:52:34;;;;;;;36.60;20.05;;;11.80;99.90;;;;;;5417467;26;20340;-81
2024/04/10 03:55:00;;;;;;;36.30;19.55;;;11.80;99.90;;;;;;5417151;26;20083;-81
2024/04/10 03:57:25;;;;;;;34.97;21.33;;;11.70;99.90;;;;;;5385639;26;20004;-80
2024/04/10 03:59:51;;;;;;;34.80;20.80;;;11.70;99.90;;;;;;5417272;26;19999;-80
2024/04/10 04:02:18;;;;;;;36.00;22.00;;;11.70;99.90;;;;;;5416900;26;20486;-82
2024/04/10 04:04:44;;;;;;;33.00;21.10;;;11.70;99.90;;;;;;5385977;26;20360;-80
2024/04/10 04:07:10;;;;;;;30.55;20.10;;;11.90;99.90;;;;;;5416710;26;20003;-82
2024/04/10 04:09:38;;;;;;;32.30;20.02;;;12.00;99.90;;;;;;5385169;26;20003;-82
2024/04/10 04:12:05;;;;;;;31.35;19.58;;;12.10;99.90;;;;;;5385295;26;20007;-81
2024/04/10 04:14:30;;;;;;;30.75;16.80;;;12.20;99.90;;;;;;5416626;26;19999;-81
2024/04/10 04:16:56;;;;;;;29.02;17.48;;;12.30;99.90;;;;;;5416929;26;20014;-80
2024/04/10 04:19:27;;;;;;;29.50;18.85;;;12.40;99.90;;;;;;5416621;26;20471;-81
2024/04/10 04:21:53;;;;;;;28.05;18.55;;;12.40;99.90;;;;;;5385202;26;20053;-81
2024/04/10 04:24:19;;;;;;;31.70;19.67;;;12.30;99.90;;;;;;5416142;26;19999;-81
2024/04/10 04:26:45;;;;;;;28.50;18.10;;;12.20;99.90;;;;;;5417296;26;19999;-81
2024/04/10 04:29:11;;;;;;;32.65;20.00;;;12.30;99.90;;;;;;5427002;26;20014;-79
2024/04/10 04:31:37;;;;;;;32.60;17.65;;;12.30;99.90;;;;;;5417081;26;20003;-81
2024/04/10 04:34:09;;;;;;;24.40;17.88;;;12.40;99.90;;;;;;5416504;26;20003;-80
2024/04/10 04:36:37;;;;;;;26.70;18.17;;;12.40;99.90;;;;;;5384897;26;20019;-80
2024/04/10 04:39:03;;;;;;;26.38;15.77;;;12.50;99.90;;;;;;5416616;26;20018;-81
2024/04/10 04:41:28;;;;;;;28.20;17.98;;;12.60;99.90;;;;;;5416681;26;20003;-80
2024/04/10 04:43:54;;;;;;;28.20;16.55;;;12.60;99.90;;;;;;5402819;26;20015;-82
2024/04/10 04:46:20;;;;;;;28.25;15.77;;;12.70;99.90;;;;;;5405026;26;20008;-80
2024/04/10 04:48:46;;;;;;;29.33;16.50;;;12.70;99.90;;;;;;5416684;26;20348;-82
2024/04/10 04:51:11;;;;;;;28.77;16.65;;;12.70;99.90;;;;;;5417658;26;20004;-81
2024/04/10 04:53:37;;;;;;;26.90;17.38;;;12.70;99.90;;;;;;5416519;26;20080;-81
2024/04/10 04:56:03;;;;;;;31.25;16.83;;;12.70;99.90;;;;;;5417341;26;20029;-81
2024/04/10 04:58:29;;;;;;;30.10;16.23;;;12.70;99.90;;;;;;5418930;26;20101;-82
2024/04/10 05:00:56;;;;;;;25.17;17.30;;;12.80;99.90;;;;;;5388255;26;20013;-81
2024/04/10 05:06:09;;;;;;;29.63;17.40;;;13.00;99.90;;;;;;5415835;26;20018;-80
2024/04/10 05:08:35;;;;;;;30.98;17.55;;;12.90;99.90;;;;;;5416595;26;20000;-80
2024/04/10 05:11:06;;;;;;;28.45;18.10;;;13.00;99.90;;;;;;5385223;26;20013;-80
2024/04/10 05:13:32;;;;;;;31.73;18.42;;;13.10;99.90;;;;;;5385269;26;20015;-82
2024/04/10 05:15:59;;;;;;;31.60;19.63;;;13.20;99.90;;;;;;5415856;26;20000;-81
2024/04/10 05:18:25;;;;;;;27.70;17.05;;;13.30;99.90;;;;;;5414651;26;20040;-82
2024/04/10 05:20:51;;;;;;;26.67;18.90;;;13.50;99.90;;;;;;5416057;26;20000;-80
2024/04/10 05:23:18;;;;;;;26.67;18.70;;;13.70;99.90;;;;;;5415813;26;20014;-81
2024/04/10 05:25:45;;;;;;;27.30;17.27;;;13.80;99.90;;;;;;5416830;26;20011;-82
2024/04/10 05:28:11;;;;;;;;;;;13.80;99.90;;;;;;5416456;26;20004;-81
2024/04/10 05:30:37;;;;;;;26.45;16.23;;;13.90;99.90;;;;;;5403773;26;20266;-81
2024/04/10 05:33:04;;;;;;;21.25;15.50;;;13.80;99.90;;;;;;5406781;26;20428;-81
2024/04/10 05:35:29;;;;;;;24.08;17.02;;;13.70;99.90;;;;;;5377937;26;20012;-82
2024/04/10 05:37:56;;;;;;;26.70;16.45;;;13.50;99.90;;;;;;5405024;26;20348;-81
2024/04/10 05:40:22;;;;;;;28.77;18.00;;;13.40;99.90;;;;;;5408276;26;19996;-81
2024/04/10 05:42:48;;;;;;;23.27;16.67;;;13.40;99.90;;;;;;5416228;26;20324;-82
2024/04/10 05:45:14;;;;;;;33.43;19.23;;;13.50;99.90;;;;;;5387040;26;20512;-82
2024/04/10 05:47:42;;;;;;;28.55;18.92;;;13.60;99.90;;;;;;5415098;26;20035;-82
2024/04/10 05:50:08;;;;;;;;;;;13.70;99.90;;;;;;5415586;26;19995;-81
2024/04/10 05:52:35;;;;;;;30.42;20.25;;;13.90;99.90;;;;;;5415406;26;19932;-82
2024/04/10 05:55:01;;;;;;;28.20;19.63;;;13.90;99.90;;;;;;5415405;26;20452;-81
2024/04/10 05:57:27;;;;;;;30.67;19.50;;;14.00;99.90;;;;;;5412772;26;20003;-81
2024/04/10 05:59:59;;;;;;;28.10;20.77;;;14.00;99.90;;;;;;5415841;26;19995;-82
2024/04/10 06:02:27;;;;;;;30.50;19.75;;;14.30;99.90;;;;;;5415638;26;20011;-81
2024/04/10 06:04:57;;;;;;;28.45;20.38;;;14.60;99.90;;;;;;5416284;26;20011;-82
2024/04/10 06:07:24;;;;;;;29.23;19.52;;;14.70;99.90;;;;;;5418671;26;20044;-80
2024/04/10 06:09:57;;;;;;;22.87;17.90;;;14.90;99.90;;;;;;5427405;26;20348;-81
2024/04/10 06:12:23;;;;;;;23.85;18.08;;;16.40;99.90;;;;;;5422445;26;20003;-81
2024/04/10 06:14:58;;;;;;;24.63;17.67;;;18.30;99.90;;;;;;5413807;26;20141;-84
2024/04/10 06:17:27;;;;;;;24.67;16.83;;;19.60;99.00;;;;;;5414230;26;19999;-84
2024/04/10 06:19:55;;;;;;;26.52;18.33;;;19.30;96.30;;;;;;5383597;26;20080;-84
2024/04/10 06:22:21;;;;;;;24.05;17.23;;;18.90;96.40;;;;;;5382982;26;20038;-84
2024/04/10 06:24:47;;;;;;;24.75;18.52;;;19.40;95.40;;;;;;5414163;26;19996;-83
2024/04/10 06:27:14;;;;;;;23.73;17.40;;;20.00;93.80;;;;;;5414568;26;19996;-82
2024/04/10 06:29:46;;;;;;;;;;;21.10;92.00;;;;;;5415174;26;20028;-83
2024/04/10 06:32:16;;;;;;;27.33;18.70;;;21.00;92.10;;;;;;5418663;26;19924;-83
2024/04/10 06:34:42;;;;;;;27.17;18.88;;;20.00;91.60;;;;;;5418910;26;20015;-83
2024/04/10 06:37:08;;;;;;;24.70;18.75;;;20.30;92.10;;;;;;5405722;26;20000;-83
2024/04/10 06:39:34;;;;;;;23.55;17.80;;;21.10;90.90;;;;;;5376614;26;20010;-82
2024/04/10 06:42:00;;;;;;;23.45;19.77;;;22.40;87.60;;;;;;5417785;26;20452;-83
2024/04/10 06:44:26;;;;;;;26.13;18.27;;;22.20;84.10;;;;;;5382942;26;20000;-84
2024/04/10 06:46:52;;;;;;;27.75;19.13;;;22.30;84.40;;;;;;5417474;26;20011;-84
2024/04/10 06:49:19;;;;;;;24.17;18.52;;;22.50;83.10;;;;;;5387567;26;20013;-84
2024/04/10 06:51:45;;;;;;;24.10;17.17;;;23.10;81.60;;;;;;5420071;26;20328;-82
2024/04/10 06:54:11;;;;;;;24.75;18.85;;;23.30;80.20;;;;;;5419269;26;19999;-83
2024/04/10 06:56:37;;;;;;;25.00;19.57;;;;;;;;;;5386448;26;20003;-81
2024/04/10 06:59:03;;;;;;;29.93;18.57;;;;;;;;;;5418626;26;20014;-83
2024/04/10 07:01:29;;;;;;;25.37;19.07;;;;;;;;;;5420405;26;20534;-83
2024/04/10 07:03:55;;;;;;;23.33;15.43;;;;;;;;;;5418088;26;20031;-83
2024/04/10 07:06:22;;;;;;;21.13;15.90;;;;;;;;;;5418797;26;19999;-84
2024/04/10 07:08:49;;;;;;;22.55;17.10;;;;;;;;;;5417976;26;20015;-84
2024/04/10 07:11:15;;;;;;;;;;;;;;;;;;5418821;26;20455;-82
2024/04/10 07:13:45;;;;;;;21.67;15.10;;;;;;;;;;5386108;26;19925;-83
2024/04/10 07:16:12;;;;;;;19.40;14.90;;;;;;;;;;5417598;26;20003;-82
2024/04/10 07:19:09;;;;;;;;;;;;;;;;;;;;;
2024/04/10 07:25:33;;;;;;;22.88;15.95;;;28.90;59.70;;;;;;5404473;26;20479;-83
2024/04/10 07:38:33;;;;;;;;;;;;;;;;;;;;;
2024/04/10 07:41:53;;;;;;;;;;;;;;;;;;;;;
2024/04/10 07:48:02;;;;;;;;;;;;;;;;;;;;;
2024/04/10 07:54:45;;;;;;;;;;;;;;;;;;;;;
2024/04/10 08:00:37;;;;;;;;;;;;;;;;;;;;;
2024/04/10 08:03:32;;;;;;;20.98;15.80;;;29.90;53.00;;;;;;5416636;26;20000;-83
2024/04/10 08:06:30;;;;;;;;;;;;;;;;;;;;;
2024/04/10 08:09:44;;;;;;;;;;;;;;;;;;;;;
2024/04/10 08:12:29;;;;;;;24.58;17.90;;;29.50;54.10;;;;;;5402751;26;19999;-81
2024/04/10 08:21:37;;;;;;;;;;;;;;;;;;;;;
2024/04/10 08:24:43;;;;;;;;;;;;;;;;;;;;;
2024/04/10 08:27:30;;;;;;;34.55;19.30;;;30.10;53.90;;;;;;5417094;26;20010;-82
2024/04/10 08:30:29;;;;;;;;;;;;;;;;;;;;;
2024/04/10 08:33:42;;;;;;;;;;;;;;;;;;;;;
2024/04/10 08:36:31;;;;;;;;;;;;;;;;;;;;;
2024/04/10 08:39:27;;;;;;;27.20;15.98;;;31.90;50.00;;;;;;5416181;26;19999;-81
2024/04/10 08:42:36;;;;;;;;;;;;;;;;;;;;;
2024/04/10 08:45:45;;;;;;;23.33;15.98;;;33.00;48.70;;;;;;5409966;26;20019;-81
2024/04/10 08:48:56;;;;;;;26.23;17.75;;;33.30;47.90;;;;;;5391110;26;20001;-83
2024/04/10 08:51:37;;;;;;;;;;;;;;;;;;;;;
2024/04/10 08:54:27;;;;;;;31.40;19.48;;;30.60;50.90;;;;;;5394179;26;19999;-82
2024/04/10 08:56:53;;;;;;;37.10;21.25;;;30.50;50.60;;;;;;5384573;26;20008;-83
2024/04/10 08:59:40;;;;;;;;;;;;;;;;;;;;;
2024/04/10 09:02:36;;;;;;;34.58;22.95;;;30.10;51.30;;;;;;5416262;26;19999;-82
2024/04/10 09:05:22;;;;;;;;;;;;;;;;;;;;;
2024/04/10 09:07:58;;;;;;;34.90;20.05;;;30.00;51.90;;;;;;5416512;26;20328;-82
2024/04/10 09:11:01;;;;;;;27.27;18.67;;;30.80;50.60;;;;;;5416078;26;20031;-80
2024/04/10 09:13:57;;;;;;;28.50;18.83;;;31.10;50.00;;;;;;5417239;26;20351;-82
2024/04/10 09:20:12;;;;;;;;;;;;;;;;;;;;;
2024/04/10 09:23:11;;;;;;;;;;;;;;;;;;;;;
2024/04/10 09:26:36;;;;;;;25.23;14.88;;;31.30;50.10;;;;;;5428626;26;20004;-82
2024/04/10 09:29:13;;;;;;;27.50;14.40;;;31.50;49.00;;;;;;5414137;26;20007;-82
2024/04/10 09:32:22;;;;;;;;;;;;;;;;;;;;;
2024/04/10 09:35:19;;;;;;;18.15;12.18;;;32.00;47.90;;;;;;5414790;26;20015;-82
2024/04/10 09:38:32;;;;;;;;;;;;;;;;;;;;;
2024/04/10 09:41:16;;;;;;;;;;;;;;;;;;;;;
2024/04/10 09:47:25;;;;;;;;;;;;;;;;;;;;;
2024/04/10 09:50:12;;;;;;;;;;;;;;;;;;;;;
2024/04/10 09:53:07;;;;;;;21.42;12.77;;;30.40;48.50;;;;;;5414569;26;20161;-82
2024/04/10 09:56:10;;;;;;;;;;;;;;;;;;;;;
2024/04/10 09:59:07;;;;;;;16.13;10.10;;;30.50;48.60;;;;;;5415812;26;19999;-83
2024/04/10 10:02:03;;;;;;;22.30;10.75;;;30.70;48.50;;;;;;5384109;26;20003;-82
2024/04/10 10:05:28;;;;;;;;;;;;;;;;;;;;;
2024/04/10 10:08:25;;;;;;;;;;;;;;;;;;;;;
2024/04/10 10:10:56;;;;;;;16.27;8.82;;;29.30;49.30;;;;;;5410244;26;20113;-82
2024/04/10 10:13:41;;;;;;;;;;;;;;;;;;;;;
2024/04/10 10:25:49;;;;;;;15.35;8.07;;;28.00;51.30;;;;;;5419085;26;20447;-83
2024/04/10 10:28:27;;;;;;;;;;;;;;;;;;;;;
2024/04/10 10:31:56;;;;;;;18.77;8.25;;;25.70;55.00;;;;;;5417298;26;20426;-81
2024/04/10 10:37:45;;;;;;;20.17;8.82;;;25.20;56.40;;;;;;5412737;26;19999;-82
2024/04/10 10:43:32;;;;;;;;;;;;;;;;;;;;;
2024/04/10 10:46:57;;;;;;;;;;;;;;;;;;;;;
2024/04/10 10:57:05;;;;;;;20.55;9.45;;;24.40;59.80;;;;;;5386624;26;20007;-81
2024/04/10 11:06:45;;;;;;;;;;;;;;;;;;;;;
2024/04/10 11:09:27;;;;;;;;;;;;;;;;;;;;;
2024/04/10 11:12:31;;;;;;;;;;;;;;;;;;;;;
2024/04/10 11:18:42;;;;;;;;;;;;;;;;;;;;;
2024/04/10 11:21:41;;;;;;;;;;;;;;;;;;;;;
2024/04/10 11:24:50;;;;;;;19.77;12.98;;;22.10;67.30;;;;;;5413898;26;20332;-80
2024/04/10 11:28:07;;;;;;;;;;;;;;;;;;;;;
2024/04/10 11:31:03;;;;;;;;;;;;;;;;;;;;;
2024/04/10 11:34:28;;;;;;;;;;;;;;;;;;;;;
2024/04/10 11:46:37;;;;;;;28.70;12.70;;;21.90;70.50;;;;;;5386153;26;20296;-83
2024/04/10 11:50:02;;;;;;;26.67;12.57;;;21.90;71.20;;;;;;5417373;26;20012;-83
2024/04/10 11:53:15;;;;;;;;;;;;;;;;;;;;;
2024/04/10 12:05:56;;;;;;;;;;;;;;;;;;;;;
2024/04/10 12:08:02;;;;;;;24.80;12.40;;;22.10;71.50;;;;;;5381376;26;19999;-82
2024/04/10 12:21:00;;;;;;;24.85;13.13;;;21.50;73.20;;;;;;5415280;26;20448;-82
2024/04/10 12:31:12;;;;;;;29.33;13.20;;;21.30;74.40;;;;;;5389264;26;20445;-82
2024/04/10 12:33:58;;;;;;;21.92;12.18;;;21.40;74.90;;;;;;5394776;26;20403;-82
2024/04/10 12:39:36;;;;;;;25.10;13.18;;;21.80;73.40;;;;;;5434510;26;20010;-81
2024/04/10 12:42:17;;;;;;;;;;;;;;;;;;;;;
2024/04/10 12:45:23;;;;;;;21.75;11.48;;;22.00;72.60;;;;;;5416459;26;19999;-81
2024/04/10 12:48:19;;;;;;;;;;;;;;;;;;;;;
2024/04/10 12:58:03;;;;;;;;;;;;;;;;;;;;;
2024/04/10 13:03:48;;;;;;;30.45;16.25;;;22.00;74.70;;;;;;5397374;26;20023;-82
2024/04/10 13:06:47;;;;;;;;;;;;;;;;;;;;;
2024/04/10 13:09:13;;;;;;;61.55;23.10;;;21.90;75.20;;;;;;5405305;26;19999;-82
2024/04/10 13:11:56;;;;;;;30.70;17.60;;;21.80;75.80;;;;;;5415969;26;20084;-82
2024/04/10 13:18:06;;;;;;;;;;;;;;;;;;;;;
2024/04/10 13:23:54;;;;;;;;;;;;;;;;;;;;;
2024/04/10 13:30:03;;;;;;;;;;;;;;;;;;;;;
2024/04/10 13:33:14;;;;;;;;;;;;;;;;;;;;;
2024/04/10 13:39:47;;;;;;;32.75;17.17;;;20.50;80.90;;;;;;5383614;26;20043;-82
2024/04/10 13:45:35;;;;;;;;;;;;;;;;;;;;;
2024/04/10 13:48:43;;;;;;;;;;;;;;;;;;;;;
2024/04/10 13:51:45;;;;;;;27.90;18.08;;;20.70;81.20;;;;;;5414563;26;19999;-82
2024/04/10 13:54:28;;;;;;;30.08;17.65;;;20.50;81.50;;;;;;5376283;26;19997;-83
2024/04/10 14:01:01;;;;;;;;;;;;;;;;;;;;;
2024/04/10 14:07:13;;;;;;;30.27;19.02;;;20.10;83.60;;;;;;5370627;26;20015;-82
2024/04/10 14:10:25;;;;;;;;;;;;;;;;;;;;;
2024/04/10 14:13:24;;;;;;;;;;;;;;;;;;;;;
2024/04/10 14:16:43;;;;;;;;;;;;;;;;;;;;;
2024/04/10 14:20:10;;;;;;;29.95;16.70;;;19.90;84.80;;;;;;5375794;26;20000;-82
2024/04/10 14:25:40;;;;;;;;;;;;;;;;;;;;;
2024/04/10 14:28:14;;;;;;;33.67;18.83;;;19.70;85.90;;;;;;5413725;26;20010;-84
2024/04/10 14:44:04;;;;;;;22.20;12.95;;;19.60;85.90;;;;;;5232977;27;20583;-83
2024/04/10 14:46:52;;;;;;;23.42;13.43;;;19.50;85.80;;;;;;5306627;27;20020;-82
2024/04/10 14:49:30;;;;;;;20.70;13.10;;;19.40;86.00;;;;;;5306141;27;20208;-82
2024/04/10 14:51:58;;;;;;;;;;;19.40;86.30;;;;;;5281389;27;20009;-82
2024/04/10 14:55:05;;;;;;;22.77;12.63;;;19.40;86.00;;;;;;5309748;27;20311;-83
2024/04/10 14:57:46;;;;;;;24.38;11.80;;;19.40;86.10;;;;;;5269090;27;20001;-82
2024/04/10 15:00:58;;;;;;;24.17;12.43;;;19.40;86.30;;;;;;5309635;27;20072;-82
2024/04/10 15:09:51;;;;;;;19.75;11.85;;;19.40;86.70;;;;;;5308704;27;20008;-82
2024/04/10 15:12:28;;;;;;;26.27;12.95;;;19.30;86.50;;;;;;5308753;27;20080;-82
2024/04/10 15:15:23;;;;;;;32.28;14.70;;;19.30;86.90;;;;;;5308887;27;20005;-82
2024/04/10 15:18:32;;;;;;;16.45;11.00;;;19.30;86.80;;;;;;5340604;26;20432;-81
2024/04/10 15:21:01;;;;;;;24.48;12.10;;;19.40;86.70;;;;;;5385093;26;20003;-83
2024/04/10 15:23:27;;;;;;;17.55;9.93;;;19.30;86.70;;;;;;5385517;26;20011;-82
2024/04/10 15:25:54;;;;;;;24.67;10.93;;;19.30;86.80;;;;;;5416732;26;20003;-82
2024/04/10 15:28:30;;;;;;;16.52;10.32;;;19.30;87.00;;;;;;5417136;26;20007;-82
2024/04/10 15:30:58;;;;;;;20.08;9.55;;;19.30;87.10;;;;;;5416633;26;20018;-83
2024/04/10 15:33:44;;;;;;;18.80;10.18;;;19.20;87.20;;;;;;5416637;26;20003;-82
2024/04/10 15:36:13;;;;;;;22.63;9.95;;;19.20;88.10;;;;;;5417272;26;20452;-82
2024/04/10 15:38:40;;;;;;;20.90;9.40;;;19.10;87.50;;;;;;5385531;26;20452;-82
2024/04/10 15:41:08;;;;;;;20.02;9.32;;;19.10;87.80;;;;;;5385821;26;20026;-82
2024/04/10 15:43:37;;;;;;;16.30;9.02;;;19.00;88.00;;;;;;5417449;26;19999;-82
2024/04/10 15:46:04;;;;;;;22.33;9.48;;;19.00;88.20;;;;;;5417457;26;20396;-82
2024/04/10 15:48:34;;;;;;;24.35;11.35;;;19.00;88.50;;;;;;5389060;26;19995;-82
2024/04/10 15:51:00;;;;;;;18.80;9.27;;;18.90;89.30;;;;;;5433199;26;20007;-82
2024/04/10 15:53:27;;;;;;;25.70;9.13;;;18.90;88.80;;;;;;5434557;26;20000;-82
2024/04/10 15:56:04;;;;;;;25.17;11.95;;;18.80;88.90;;;;;;5390100;26;20036;-83
2024/04/10 15:58:31;;;;;;;22.17;9.80;;;18.80;89.30;;;;;;5387112;26;20201;-82
2024/04/10 16:01:01;;;;;;;14.70;8.90;;;18.70;89.30;;;;;;5417871;26;20014;-83
2024/04/10 16:03:33;;;;;;;21.08;9.93;;;18.70;89.30;;;;;;5415557;26;20004;-82
2024/04/10 16:06:00;;;;;;;16.85;8.25;;;18.60;89.70;;;;;;5415387;26;20106;-82
2024/04/10 16:08:34;;;;;;;28.73;10.68;;;18.60;89.70;;;;;;5415844;26;20012;-82
2024/04/10 16:11:00;;;;;;;19.92;9.80;;;18.60;90.00;;;;;;5385132;26;20068;-82
2024/04/10 16:13:27;;;;;;;22.73;10.38;;;18.50;90.10;;;;;;5416173;26;20405;-82
2024/04/10 16:16:05;;;;;;;20.60;9.00;;;18.40;90.30;;;;;;5416237;26;20003;-82
2024/04/10 16:18:32;;;;;;;23.98;9.88;;;18.40;90.30;;;;;;5416577;26;20050;-82
2024/04/10 16:21:09;;;;;;;15.52;9.38;;;18.30;90.30;;;;;;5415903;26;20008;-82
2024/04/10 16:24:21;;;;;;;;;;;;;;;;;;;;;
2024/04/10 16:26:47;;;;;;;26.45;10.40;;;18.20;90.50;;;;;;5416533;26;20000;-82
2024/04/10 16:29:13;;;;;;;23.90;10.45;;;18.20;90.70;;;;;;5416716;26;20003;-82
2024/04/10 16:31:38;;;;;;;17.25;9.77;;;18.10;90.80;;;;;;5416432;26;20053;-82
2024/04/10 16:34:04;;;;;;;20.95;11.10;;;18.10;90.90;;;;;;5384452;26;20348;-82
2024/04/10 16:36:30;;;;;;;18.98;10.02;;;18.10;91.10;;;;;;5385010;26;20003;-82
2024/04/10 16:38:56;;;;;;;25.00;10.60;;;18.00;91.10;;;;;;5416043;26;20072;-82
2024/04/10 16:41:22;;;;;;;19.48;10.35;;;18.00;91.20;;;;;;5415018;26;20019;-83
2024/04/10 16:43:49;;;;;;;25.67;11.10;;;17.90;91.40;;;;;;5385932;26;20000;-82
2024/04/10 16:46:14;;;;;;;16.85;10.73;;;17.90;91.50;;;;;;5418880;26;20397;-81
2024/04/10 16:48:40;;;;;;;27.80;12.73;;;17.90;91.50;;;;;;5418409;26;20000;-81
2024/04/10 16:51:07;;;;;;;25.17;11.50;;;17.90;91.70;;;;;;5385040;26;20336;-81
2024/04/10 16:53:34;;;;;;;23.42;11.98;;;17.80;91.80;;;;;;5384393;26;20017;-82
2024/04/10 16:56:00;;;;;;;26.65;12.73;;;17.80;91.90;;;;;;5416132;26;20004;-82
2024/04/10 16:58:38;;;;;;;26.02;11.57;;;17.80;91.90;;;;;;5416319;26;20451;-82
2024/04/10 17:01:05;;;;;;;28.88;13.27;;;17.80;92.20;;;;;;5415755;26;20022;-82
2024/04/10 17:03:31;;;;;;;23.48;14.30;;;17.70;92.30;;;;;;5384573;26;20004;-82
2024/04/10 17:06:06;;;;;;;22.67;12.82;;;17.70;92.30;;;;;;5379622;26;20453;-82
2024/04/10 17:08:32;;;;;;;21.23;12.60;;;17.70;92.40;;;;;;5405956;26;20031;-82
2024/04/10 17:10:57;;;;;;;23.58;13.38;;;17.70;92.70;;;;;;5416528;26;20010;-82
2024/04/10 17:13:26;;;;;;;26.15;12.98;;;17.70;92.70;;;;;;5414421;26;20000;-82
2024/04/10 17:15:53;;;;;;;26.30;13.55;;;17.70;92.70;;;;;;5384466;26;20000;-83